Time;durP1;ratioP1;P1;durP2;ratioP2;P2;SDS_P1;SDS_P2;PMS_P1;PMS_P2;Temp;Humidity;BMP_temperature;BMP_pressure;BME280_temperature;BME280_humidity;BME280_pressure;Samples;Min_cycle;Max_cycle;Signal;HPM_P1;HPM_P2
2022/10/20 00:00:22;;;;;;;15.00;10.50;;;;;;;9.59;100.00;101601.06;5010661;28;20064;-81
2022/10/20 00:02:47;;;;;;;13.85;10.35;;;;;;;9.59;100.00;101603.69;5014690;28;20025;-80
2022/10/20 00:05:13;;;;;;;20.80;11.57;;;;;;;9.58;100.00;101599.38;5028645;28;20549;-80
2022/10/20 00:07:38;;;;;;;15.05;10.75;;;;;;;9.57;100.00;101587.16;5011645;28;20025;-80
2022/10/20 00:10:04;;;;;;;17.90;11.25;;;;;;;9.53;100.00;101580.41;5029379;28;20061;-80
2022/10/20 00:12:29;;;;;;;18.33;10.88;;;;;;;9.50;100.00;101585.81;5010446;28;20393;-81
2022/10/20 00:14:54;;;;;;;20.08;11.65;;;;;;;9.46;100.00;101584.31;5009720;28;20042;-81
2022/10/20 00:17:20;;;;;;;14.85;11.05;;;;;;;9.46;100.00;101600.06;5009480;28;20478;-80
2022/10/20 00:19:48;;;;;;;19.05;11.18;;;;;;;9.41;100.00;101588.06;5008855;28;20131;-81
2022/10/20 00:22:14;;;;;;;17.45;11.68;;;;;;;9.39;100.00;101589.94;4990859;28;20025;-81
2022/10/20 00:24:39;;;;;;;17.70;12.02;;;;;;;9.39;100.00;101592.56;4992716;28;20056;-81
2022/10/20 00:27:05;;;;;;;19.13;11.85;;;;;;;9.39;100.00;101595.19;5009878;28;20482;-81
2022/10/20 00:29:30;;;;;;;16.70;12.35;;;;;;;9.36;100.00;101582.22;4991534;28;20382;-86
2022/10/20 00:31:56;;;;;;;16.77;12.60;;;;;;;9.37;100.00;101573.41;5009877;28;20026;-86
2022/10/20 00:34:21;;;;;;;26.92;13.27;;;;;;;9.34;100.00;101575.38;5009042;28;20402;-86
2022/10/20 00:36:47;;;;;;;21.40;13.23;;;;;;;9.34;100.00;101570.13;5004707;28;20041;-87
2022/10/20 00:39:12;;;;;;;17.75;12.75;;;;;;;9.28;100.00;101563.44;5003442;28;20099;-86
2022/10/20 00:41:37;;;;;;;16.27;13.50;;;;;;;9.28;100.00;101566.06;5009700;28;20445;-81
2022/10/20 00:44:41;;;;;;;15.95;13.13;;;;;;;9.29;100.00;101561.66;5009547;28;20044;-81
2022/10/20 00:47:27;;;;;;;19.60;13.48;;;;;;;9.26;100.00;101557.44;5007911;28;20042;-81
2022/10/20 00:49:56;;;;;;;24.02;14.35;;;;;;;9.27;100.00;101553.03;5009483;28;20022;-80
2022/10/20 00:52:21;;;;;;;16.35;13.52;;;;;;;9.25;100.00;101552.25;5008598;28;20017;-81
2022/10/20 00:54:48;;;;;;;20.90;14.55;;;;;;;9.27;100.00;101558.28;5010127;28;20032;-81
2022/10/20 00:57:14;;;;;;;20.58;14.70;;;;;;;9.28;100.00;101549.47;5009330;28;20033;-81
2022/10/20 00:59:39;;;;;;;18.83;14.07;;;;;;;9.27;100.00;101550.41;5009909;28;20034;-81
2022/10/20 01:02:07;;;;;;;16.55;14.30;;;;;;;9.32;100.00;101564.09;5009666;28;20041;-81
2022/10/20 01:04:35;;;;;;;21.67;14.90;;;;;;;9.33;100.00;101553.50;5008732;28;20032;-82
2022/10/20 01:07:01;;;;;;;25.55;14.93;;;;;;;9.35;100.00;101545.53;4991986;28;20021;-82
2022/10/20 01:09:27;;;;;;;20.85;15.18;;;;;;;9.36;100.00;101532.31;5008797;28;20033;-80
2022/10/20 01:12:04;;;;;;;20.80;15.20;;;;;;;9.38;100.00;101525.19;5009435;28;20034;-82
2022/10/20 01:14:35;;;;;;;22.55;15.10;;;;;;;9.39;100.00;101520.78;5006707;28;20041;-82
2022/10/20 01:17:17;;;;;;;22.77;15.85;;;;;;;9.40;100.00;101511.97;5010418;28;20025;-82
2022/10/20 01:20:22;;;;;;;20.23;15.15;;;;;;;9.41;100.00;101490.88;5027919;28;20030;-80
2022/10/20 01:23:14;;;;;;;20.70;15.50;;;;;;;9.39;100.00;101484.03;5023547;28;20100;-80
2022/10/20 01:26:05;;;;;;;20.02;15.15;;;;;;;9.40;100.00;101485.72;5012844;28;20026;-81
2022/10/20 01:28:49;;;;;;;23.35;16.48;;;;;;;9.39;100.00;101474.38;4995562;28;20050;-87
2022/10/20 01:31:25;;;;;;;19.10;15.70;;;;;;;9.40;100.00;101476.06;5012025;28;20033;-80
2022/10/20 01:34:05;;;;;;;24.80;16.95;;;;;;;9.40;100.00;101473.44;5027561;28;20032;-86
2022/10/20 01:36:46;;;;;;;22.00;16.38;;;;;;;9.43;100.00;101475.88;5013705;28;20029;-88
2022/10/20 01:39:18;;;;;;;21.75;16.40;;;;;;;9.45;100.00;101480.19;4994344;28;20080;-86
2022/10/20 01:41:52;;;;;;;28.25;18.17;;;;;;;9.46;100.00;101474.00;5013508;28;20053;-82
2022/10/20 01:44:20;;;;;;;20.35;16.42;;;;;;;9.44;100.00;101481.97;5012702;28;20548;-83
2022/10/20 01:46:46;;;;;;;23.63;17.33;;;;;;;9.48;100.00;101488.72;5012780;28;20034;-83
2022/10/20 01:49:13;;;;;;;21.52;17.27;;;;;;;9.48;100.00;101483.47;5012762;28;20025;-83
2022/10/20 01:51:39;;;;;;;22.30;17.00;;;;;;;9.50;100.00;101478.13;5011634;28;20021;-83
2022/10/20 01:54:04;;;;;;;21.83;17.30;;;;;;;9.50;100.00;101486.84;5027474;28;20037;-80
2022/10/20 01:56:54;;;;;;;20.58;17.35;;;;;;;9.51;100.00;101479.81;5013860;28;20076;-80
2022/10/20 01:59:51;;;;;;;21.63;16.77;;;;;;;9.48;100.00;101470.34;4994245;28;20058;-83
2022/10/20 02:02:35;;;;;;;24.13;17.42;;;;;;;9.50;100.00;101486.00;5017599;28;20398;-83
2022/10/20 02:05:16;;;;;;;22.60;17.33;;;;;;;9.48;100.00;101482.63;5004426;28;20030;-88
2022/10/20 02:07:42;;;;;;;21.85;17.13;;;;;;;9.46;100.00;101474.00;5026858;28;20402;-86
2022/10/20 02:10:34;;;;;;;22.05;18.02;;;;;;;9.44;100.00;101458.31;5032770;28;20148;-80
2022/10/20 02:13:04;;;;;;;18.73;16.38;;;;;;;9.37;100.00;101459.63;5001991;28;20037;-86
2022/10/20 02:15:32;;;;;;;23.30;16.98;;;;;;;9.32;100.00;101457.28;5014523;28;20417;-81
2022/10/20 02:18:04;;;;;;;20.73;16.77;;;;;;;9.25;100.00;101455.97;5031927;28;20060;-81
2022/10/20 02:20:30;;;;;;;22.58;17.80;;;;;;;9.22;100.00;101443.00;5013298;28;20990;-81
2022/10/20 02:22:58;;;;;;;24.25;16.98;;;;;;;9.20;100.00;101444.00;5008368;28;20052;-80
2022/10/20 02:25:25;;;;;;;19.77;16.23;;;;;;;9.13;100.00;101435.66;5011393;28;20428;-81
2022/10/20 02:27:53;;;;;;;23.73;18.05;;;;;;;9.06;100.00;101439.56;4994014;28;20123;-81
2022/10/20 02:30:19;;;;;;;24.33;16.75;;;;;;;9.05;100.00;101425.59;5006053;28;20021;-80
2022/10/20 02:32:48;;;;;;;23.50;16.85;;;;;;;9.02;100.00;101417.06;5031076;28;20029;-81
2022/10/20 02:35:17;;;;;;;26.17;17.65;;;;;;;9.03;100.00;101413.50;5029996;28;20164;-86
2022/10/20 02:37:42;;;;;;;22.25;17.80;;;;;;;8.99;100.00;101401.50;5014081;28;20520;-80
2022/10/20 02:40:08;;;;;;;23.73;17.30;;;;;;;8.91;100.00;101393.22;5013713;28;20026;-81
2022/10/20 02:42:34;;;;;;;22.90;17.50;;;;;;;8.89;100.00;101390.69;5028782;28;20025;-80
2022/10/20 02:44:59;;;;;;;27.42;18.98;;;;;;;8.87;100.00;101384.69;4994092;28;20446;-80
2022/10/20 02:47:25;;;;;;;28.50;19.50;;;;;;;8.86;100.00;101380.38;4994686;28;20067;-86
2022/10/20 02:49:50;;;;;;;23.58;18.60;;;;;;;8.87;100.00;101375.97;5011924;28;20025;-80
2022/10/20 02:52:16;;;;;;;25.70;20.23;;;;;;;8.85;100.00;101372.59;4994250;28;20037;-80
2022/10/20 02:54:41;;;;;;;26.55;20.30;;;;;;;8.85;100.00;101373.44;5010938;28;20041;-81
2022/10/20 02:57:06;;;;;;;25.17;20.17;;;;;;;8.87;100.00;101360.22;5012985;28;20032;-81
2022/10/20 02:59:32;;;;;;;25.08;19.90;;;;;;;8.85;100.00;101355.06;5031795;28;20061;-81
2022/10/20 03:01:57;;;;;;;25.48;20.02;;;;;;;8.89;100.00;101351.34;5030799;28;20028;-81
2022/10/20 03:04:23;;;;;;;28.80;19.58;;;;;;;8.88;100.00;101354.06;5026054;28;20029;-81
2022/10/20 03:06:48;;;;;;;30.42;21.00;;;;;;;8.91;100.00;101351.25;5023796;28;20125;-81
2022/10/20 03:09:13;;;;;;;28.38;21.42;;;;;;;8.92;100.00;101345.06;5011425;28;20329;-81
2022/10/20 03:11:39;;;;;;;30.17;21.98;;;;;;;8.94;100.00;101336.16;5020555;28;20505;-81
2022/10/20 03:14:04;;;;;;;29.30;22.38;;;;;;;8.96;100.00;101341.31;4998411;28;20501;-81
2022/10/20 03:16:29;;;;;;;27.08;21.60;;;;;;;8.97;100.00;101340.38;4993254;28;20481;-87
2022/10/20 03:18:57;;;;;;;31.13;22.63;;;;;;;9.01;100.00;101326.97;4994248;28;20029;-87
2022/10/20 03:21:23;;;;;;;33.20;22.65;;;;;;;9.04;100.00;101333.81;5010906;28;20079;-81
2022/10/20 03:23:48;;;;;;;29.13;23.63;;;;;;;9.09;100.00;101334.38;5005130;28;20025;-80
2022/10/20 03:26:14;;;;;;;30.52;23.70;;;;;;;9.12;100.00;101334.22;5012856;28;20022;-80
2022/10/20 03:28:39;;;;;;;29.42;23.70;;;;;;;9.13;100.00;101325.41;5020570;28;20481;-80
2022/10/20 03:31:06;;;;;;;33.65;23.88;;;;;;;9.20;100.00;101320.59;4992718;28;20334;-81
2022/10/20 03:33:31;;;;;;;35.55;23.58;;;;;;;9.21;100.00;101322.31;5003402;28;20485;-81
2022/10/20 03:35:57;;;;;;;32.53;24.13;;;;;;;9.25;100.00;101316.78;5012451;28;20031;-80
2022/10/20 03:38:22;;;;;;;34.40;24.30;;;;;;;9.28;100.00;101319.22;5012081;28;20029;-81
2022/10/20 03:40:51;;;;;;;32.08;24.25;;;;;;;9.29;100.00;101309.56;5011580;28;20033;-81
2022/10/20 03:43:16;;;;;;;31.70;24.20;;;;;;;9.31;100.00;101308.53;5011665;28;20083;-81
2022/10/20 03:45:42;;;;;;;33.45;23.65;;;;;;;9.34;100.00;101312.75;5011872;28;20437;-80
2022/10/20 03:48:08;;;;;;;36.65;24.50;;;;;;;9.34;100.00;101310.97;5013188;28;20034;-81
2022/10/20 03:50:33;;;;;;;36.28;24.45;;;;;;;9.36;100.00;101306.47;5031497;28;20017;-81
2022/10/20 03:52:58;;;;;;;32.20;23.65;;;;;;;9.36;100.00;101297.75;5007176;28;20028;-80
2022/10/20 03:55:24;;;;;;;34.08;25.00;;;;;;;9.38;100.00;101298.50;5011056;28;20549;-80
2022/10/20 03:57:49;;;;;;;34.15;24.40;;;;;;;9.38;100.00;101294.09;4993464;28;20032;-83
2022/10/20 04:00:14;;;;;;;39.88;24.98;;;;;;;9.40;100.00;101294.84;5011757;28;20644;-83
2022/10/20 04:02:44;;;;;;;30.77;23.83;;;;;;;9.43;100.00;101299.91;5014158;28;20116;-89
2022/10/20 04:05:16;;;;;;;32.15;24.38;;;;;;;9.48;100.00;101304.03;5020838;28;20026;-89
2022/10/20 04:07:41;;;;;;;33.20;24.98;;;;;;;9.50;100.00;101291.63;5030531;28;20455;-87
2022/10/20 04:10:08;;;;;;;32.28;24.20;;;;;;;9.52;100.00;101284.50;5030253;28;20062;-86
2022/10/20 04:12:33;;;;;;;29.73;24.58;;;;;;;9.54;100.00;101290.50;5010444;28;20075;-87
2022/10/20 04:14:58;;;;;;;30.58;24.48;;;;;;;9.57;100.00;101288.53;4992522;28;20441;-87
2022/10/20 04:17:24;;;;;;;31.20;24.92;;;;;;;9.60;100.00;101279.59;5010184;28;20040;-87
2022/10/20 04:19:49;;;;;;;35.83;25.45;;;;;;;9.64;100.00;101262.72;5015014;28;20030;-87
2022/10/20 04:22:14;;;;;;;33.72;24.98;;;;;;;9.66;100.00;101255.59;5005058;28;20501;-87
2022/10/20 04:24:40;;;;;;;36.00;25.48;;;;;;;9.73;100.00;101260.34;4995699;28;20115;-81
2022/10/20 04:27:06;;;;;;;34.15;25.85;;;;;;;9.79;100.00;101259.13;5028824;28;20112;-81
2022/10/20 04:29:31;;;;;;;33.38;25.17;;;;;;;9.84;100.00;101253.56;5029639;28;20021;-81
2022/10/20 04:31:57;;;;;;;34.83;26.38;;;;;;;9.90;100.00;101243.50;5029564;28;20474;-81
2022/10/20 04:34:22;;;;;;;36.30;24.75;;;;;;;9.97;100.00;101239.53;5014039;28;20026;-81
2022/10/20 04:36:48;;;;;;;37.10;24.65;;;;;;;10.02;100.00;101234.84;5011908;28;20533;-81
2022/10/20 04:39:14;;;;;;;34.75;23.63;;;;;;;10.03;100.00;101251.44;5020193;28;20094;-82
2022/10/20 04:41:39;;;;;;;28.90;24.33;;;;;;;10.09;100.00;101247.56;5024667;28;20112;-82
2022/10/20 04:44:04;;;;;;;31.13;23.60;;;;;;;10.12;100.00;101247.38;5023213;28;20056;-82
2022/10/20 04:46:30;;;;;;;27.63;22.55;;;;;;;10.14;100.00;101248.09;5029410;28;20391;-82
2022/10/20 04:48:58;;;;;;;28.70;23.40;;;;;;;10.19;100.00;101228.44;5011101;28;20475;-82
2022/10/20 04:51:23;;;;;;;28.38;22.30;;;;;;;10.23;100.00;101223.88;5029738;28;20031;-82
2022/10/20 04:53:49;;;;;;;28.00;22.83;;;;;;;10.24;100.00;101225.53;5020178;28;20378;-82
2022/10/20 04:56:18;;;;;;;31.10;22.83;;;;;;;10.26;100.00;101221.03;5008124;28;20398;-82
2022/10/20 04:58:52;;;;;;;29.20;21.58;;;;;;;10.29;100.00;101219.03;5015429;28;20061;-82
2022/10/20 05:01:19;;;;;;;26.35;21.55;;;;;;;10.32;100.00;101212.72;5016535;28;20485;-82
2022/10/20 05:03:44;;;;;;;28.75;21.52;;;;;;;10.34;100.00;101209.03;5010917;28;20025;-82
2022/10/20 05:06:25;;;;;;;25.33;21.60;;;;;;;10.38;100.00;101232.50;5012946;28;20249;-82
2022/10/20 05:08:53;;;;;;;29.15;20.67;;;;;;;10.35;100.00;101230.94;5008968;28;20437;-82
2022/10/20 05:11:20;;;;;;;24.80;21.05;;;;;;;10.37;100.00;101231.66;5001694;28;20080;-82
2022/10/20 05:13:45;;;;;;;26.70;20.88;;;;;;;10.37;100.00;101231.66;4992306;28;20280;-82
2022/10/20 05:16:11;;;;;;;31.38;21.20;;;;;;;10.36;100.00;101214.19;5006686;28;20124;-82
2022/10/20 05:18:37;;;;;;;26.77;20.98;;;;;;;10.35;100.00;101191.47;5011962;28;20041;-82
2022/10/20 05:21:08;;;;;;;24.50;20.88;;;;;;;10.37;100.00;101192.22;5004263;28;20418;-82
2022/10/20 05:23:34;;;;;;;26.98;21.00;;;;;;;10.34;100.00;101187.16;4991219;28;20030;-82
2022/10/20 05:26:04;;;;;;;25.27;20.27;;;;;;;10.34;100.00;101208.19;4992009;28;20367;-82
2022/10/20 05:28:29;;;;;;;24.98;21.35;;;;;;;10.35;100.00;101208.09;4991970;28;20356;-82
2022/10/20 05:30:54;;;;;;;26.75;20.73;;;;;;;10.34;100.00;101189.78;5014442;28;20009;-82
2022/10/20 05:33:20;;;;;;;27.58;21.05;;;;;;;10.32;100.00;101207.47;5028041;28;20047;-82
2022/10/20 05:35:45;;;;;;;28.85;21.77;;;;;;;10.34;100.00;101208.19;5011556;28;20057;-82
2022/10/20 05:38:10;;;;;;;26.48;20.77;;;;;;;10.33;100.00;101188.09;5026713;28;20108;-82
2022/10/20 05:40:36;;;;;;;26.40;20.85;;;;;;;10.35;100.00;101175.69;5028052;28;20041;-81
2022/10/20 05:43:01;;;;;;;25.63;20.85;;;;;;;10.35;100.00;101180.94;5028675;28;20109;-82
2022/10/20 05:45:26;;;;;;;33.03;21.60;;;;;;;10.35;100.00;101180.94;5010016;28;20471;-82
2022/10/20 05:47:52;;;;;;;43.63;20.60;;;;;;;10.34;100.00;101184.53;5006523;28;20453;-82
2022/10/20 05:50:17;;;;;;;25.45;19.60;;;;;;;10.32;100.00;101203.03;4991139;28;20026;-82
2022/10/20 05:52:42;;;;;;;27.08;20.58;;;;;;;10.28;100.00;101191.03;5008562;28;20072;-82
2022/10/20 05:55:08;;;;;;;24.42;20.30;;;;;;;10.29;100.00;101197.16;5007738;28;20030;-82
2022/10/20 05:57:33;;;;;;;26.02;20.20;;;;;;;10.29;100.00;101191.88;4992637;28;20068;-81
2022/10/20 05:59:59;;;;;;;25.85;21.02;;;;;;;10.29;100.00;101191.88;5010005;28;20133;-81
2022/10/20 06:02:24;;;;;;;27.33;20.42;;;;;;;10.30;100.00;101194.41;5027961;28;20025;-81
2022/10/20 06:04:49;;;;;;;29.48;20.60;;;;;;;10.30;100.00;101190.94;5026641;28;20048;-81
2022/10/20 06:07:15;;;;;;;24.48;20.08;;;;;;;10.32;100.00;101192.53;5027690;28;20110;-81
2022/10/20 06:09:40;;;;;;;26.88;20.30;;;;;;;10.34;100.00;101187.16;5020218;28;20034;-81
2022/10/20 06:12:06;;;;;;;26.05;20.33;;;;;;;10.33;100.00;101183.69;5031472;28;20528;-81
2022/10/20 06:14:31;;;;;;;27.13;20.42;;;;;;;10.34;100.00;101180.09;5014254;28;20124;-81
2022/10/20 06:16:57;;;;;;;27.85;20.33;;;;;;;10.35;100.00;101183.59;4995019;28;20091;-81
2022/10/20 06:19:24;;;;;;;30.95;21.33;;;;;;;10.36;100.00;101195.78;5011592;28;21107;-81
2022/10/20 06:21:50;;;;;;;25.92;20.77;;;;;;;10.40;100.00;101193.78;5012969;28;20398;-81
2022/10/20 06:24:16;;;;;;;31.17;21.02;;;;;;;10.41;100.00;101198.97;4994577;28;20647;-81
2022/10/20 06:26:42;;;;;;;25.48;20.50;;;;;;;10.41;100.00;101209.50;4993239;28;20727;-82
2022/10/20 06:29:11;;;;;;;27.02;21.15;;;;;;;10.44;100.00;101190.88;5011026;28;20087;-82
2022/10/20 06:31:42;;;;;;;27.45;20.58;;;;;;;10.43;100.00;101186.56;4992848;28;20026;-81
2022/10/20 06:34:12;;;;;;;27.73;20.27;;;;;;;10.46;100.00;101196.03;5008672;28;20512;-81
2022/10/20 06:36:39;;;;;;;34.08;21.05;;;;;;;10.48;100.00;101186.25;5012069;28;20036;-81
2022/10/20 06:39:07;;;;;;;28.42;20.70;;;;;;;10.50;100.00;101179.09;4987966;28;20110;-82
2022/10/20 06:41:32;;;;;;;26.92;20.30;;;;;;;10.52;100.00;101178.03;5001162;28;20087;-81
2022/10/20 06:43:58;;;;;;;28.40;20.23;;;;;;;10.56;100.00;101173.41;4993557;28;20116;-83
2022/10/20 06:46:26;;;;;;;25.95;19.70;;;;;;;10.59;100.00;101183.72;5011525;28;20413;-81
2022/10/20 06:48:51;;;;;;;25.92;20.13;;;;;;;10.61;100.00;101174.78;5010134;28;20129;-83
2022/10/20 06:51:20;;;;;;;29.90;20.00;;;;;;;10.64;100.00;101182.44;5011082;28;20092;-83
2022/10/20 06:53:46;;;;;;;27.20;19.88;;;;;;;10.66;100.00;101172.66;4990551;28;20518;-83
2022/10/20 06:56:14;;;;;;;25.70;19.45;;;;;;;10.66;100.00;101175.28;5000470;28;20034;-83
2022/10/20 06:58:42;;;;;;;25.63;20.13;;;;;;;10.72;100.00;101174.03;4988766;28;20475;-84
2022/10/20 07:01:11;;;;;;;27.73;19.92;;;;;;;10.76;100.00;101161.47;4991810;28;20022;-83
2022/10/20 07:03:37;;;;;;;25.00;19.70;;;;;;;10.78;100.00;101152.53;5002455;28;20022;-83
2022/10/20 07:06:04;;;;;;;25.35;19.40;;;;;;;10.81;100.00;101147.09;5007788;28;20053;-83
2022/10/20 07:08:32;;;;;;;23.27;19.17;;;;;;;10.84;100.00;101161.81;5008731;28;20037;-83
2022/10/20 07:11:03;;;;;;;23.10;18.55;;;;;;;10.87;100.00;101174.75;4999693;28;20057;-83
2022/10/20 07:13:30;;;;;;;23.23;18.60;;;;;;;10.88;100.00;101176.44;4992143;28;20030;-83
2022/10/20 07:15:59;;;;;;;22.33;18.85;;;;;;;10.92;100.00;101170.00;4985992;28;20104;-83
2022/10/20 07:18:26;;;;;;;23.10;19.10;;;;;;;10.94;100.00;101166.31;4992408;28;20026;-84
2022/10/20 07:21:04;;;;;;;24.75;17.80;;;;;;;10.99;100.00;101163.38;5010314;28;20021;-82
2022/10/20 07:23:30;;;;;;;24.48;18.83;;;;;;;10.99;100.00;101166.84;5001675;28;20088;-83
2022/10/20 07:26:07;;;;;;;25.63;18.48;;;;;;;11.05;100.00;101167.34;4993817;28;20017;-83
2022/10/20 07:28:33;;;;;;;22.13;17.25;;;;;;;11.07;100.00;101171.56;5004172;28;20081;-83
2022/10/20 07:31:04;;;;;;;23.25;17.50;;;;;;;11.09;100.00;101172.28;5001090;28;20030;-82
2022/10/20 07:33:29;;;;;;;23.25;17.45;;;;;;;11.14;100.00;101175.44;5011107;28;20030;-83
2022/10/20 07:35:58;;;;;;;24.70;19.17;;;;;;;11.18;100.00;101171.63;4990776;28;20096;-83
2022/10/20 07:38:23;;;;;;;23.52;17.40;;;;;;;11.22;100.00;101170.47;4991307;28;20124;-83
2022/10/20 07:40:49;;;;;;;27.75;17.88;;;;;;;11.28;100.00;101175.31;4993544;28;20613;-83
2022/10/20 07:43:14;;;;;;;25.35;18.05;;;;;;;11.30;100.00;101176.03;5003459;28;20120;-83
2022/10/20 07:45:40;;;;;;;20.58;17.73;;;;;;;11.38;100.00;101172.00;4993237;28;20022;-83
2022/10/20 07:48:08;;;;;;;23.88;18.17;;;;;;;11.42;100.00;101174.31;4984793;28;20030;-82
2022/10/20 07:50:35;;;;;;;22.00;17.33;;;;;;;11.48;100.00;101167.75;4999566;28;20072;-82
2022/10/20 07:53:00;;;;;;;24.27;18.35;;;;;;;11.52;100.00;101169.19;4984426;28;20057;-82
2022/10/20 07:55:25;;;;;;;21.35;17.83;;;;;;;11.57;100.00;101172.34;5002202;28;20116;-82
2022/10/20 07:57:51;;;;;;;23.20;17.75;;;;;;;11.60;100.00;101172.97;4999806;28;20126;-82
2022/10/20 08:00:16;;;;;;;25.33;17.13;;;;;;;11.63;100.00;101179.81;4983273;28;20425;-82
2022/10/20 08:02:42;;;;;;;24.33;16.95;;;;;;;11.69;100.00;101175.91;5011252;28;20030;-87
2022/10/20 08:05:08;;;;;;;23.70;17.02;;;;;;;11.74;100.00;101163.22;5011429;28;20398;-90
2022/10/20 08:07:33;;;;;;;20.02;16.30;;;;;;;11.80;100.00;101158.34;4991286;28;20069;-91
2022/10/20 08:09:58;;;;;;;19.95;16.30;;;;;;;11.83;100.00;101173.13;5009661;28;20466;-91
2022/10/20 08:12:24;;;;;;;23.13;16.17;;;;;;;11.87;100.00;101171.94;5010193;28;20036;-90
2022/10/20 08:14:50;;;;;;;25.95;17.00;;;;;;;11.92;100.00;101168.00;5012413;28;20056;-91
2022/10/20 08:17:15;;;;;;;17.83;15.98;;;;;;;11.96;100.00;101167.75;5021927;28;20061;-90
2022/10/20 08:19:41;;;;;;;20.10;15.30;;;;;;;12.01;100.00;101160.34;5025517;28;20163;-91
2022/10/20 08:22:06;;;;;;;29.10;17.48;;;;;;;12.08;100.00;101161.59;5028829;28;20474;-91
2022/10/20 08:24:31;;;;;;;21.25;14.80;;;;;;;12.11;100.00;101164.00;5011843;28;20382;-91
2022/10/20 08:26:57;;;;;;;23.65;16.02;;;;;;;12.13;100.00;101159.44;5011826;28;20068;-90
2022/10/20 08:29:22;;;;;;;21.85;14.77;;;;;;;12.18;100.00;101154.66;5025207;28;20075;-85
2022/10/20 08:31:47;;;;;;;21.15;15.88;;;;;;;12.20;100.00;101160.66;5029291;28;20025;-85
2022/10/20 08:34:13;;;;;;;24.08;15.23;;;;;;;12.24;100.00;101162.09;5010529;28;20033;-86
2022/10/20 08:36:38;;;;;;;23.58;16.00;;;;;;;12.27;100.00;101161.88;5012724;28;20025;-85
2022/10/20 08:39:04;;;;;;;22.88;15.60;;;;;;;12.31;100.00;101173.88;4998750;28;20032;-83
2022/10/20 08:41:33;;;;;;;18.65;15.20;;;;;;;12.40;100.00;101165.25;5008502;28;20079;-83
2022/10/20 08:44:00;;;;;;;22.55;15.52;;;;;;;12.54;100.00;101159.75;5012295;28;20021;-83
2022/10/20 08:46:32;;;;;;;21.90;14.98;;;;;;;12.71;100.00;101155.81;5029760;28;20036;-84
2022/10/20 08:48:58;;;;;;;16.80;14.80;;;;;;;12.82;100.00;101165.56;5030021;28;20025;-83
2022/10/20 08:51:26;;;;;;;20.73;14.80;;;;;;;12.83;100.00;101160.16;5009234;28;20033;-83
2022/10/20 08:53:58;;;;;;;19.95;14.23;;;;;;;12.88;99.89;101141.28;5019637;28;20140;-83
2022/10/20 08:56:26;;;;;;;22.48;13.88;;;;;;;12.99;99.31;101125.44;5018695;28;20021;-88
2022/10/20 08:58:52;;;;;;;16.02;14.30;;;;;;;13.14;99.03;101126.00;5030469;28;20033;-88
2022/10/20 09:01:29;;;;;;;15.70;13.50;;;;;;;13.21;98.66;101126.38;5031905;28;20036;-89
2022/10/20 09:04:03;;;;;;;17.15;13.18;;;;;;;13.23;97.05;101129.75;5034509;28;20048;-87
2022/10/20 09:06:29;;;;;;;14.52;13.02;;;;;;;13.20;97.96;101130.81;5014188;28;20032;-87
2022/10/20 09:08:56;;;;;;;18.40;13.40;;;;;;;13.26;97.57;101127.72;5016707;28;20441;-88
2022/10/20 09:11:26;;;;;;;16.27;13.60;;;;;;;13.33;97.58;101128.03;5015640;28;20091;-89
2022/10/20 09:13:52;;;;;;;20.67;13.38;;;;;;;13.33;97.52;101130.69;5013778;28;20100;-89
2022/10/20 09:16:26;;;;;;;15.45;13.32;;;;;;;13.40;97.41;101123.94;5010147;28;20053;-86
2022/10/20 09:18:56;;;;;;;20.02;13.23;;;;;;;13.38;97.70;101128.50;4992639;28;20026;-83
2022/10/20 09:21:22;;;;;;;16.40;13.75;;;;;;;13.38;97.35;101123.22;4991980;28;20029;-84
2022/10/20 09:23:54;;;;;;;17.65;13.10;;;;;;;13.39;98.06;101140.75;5003562;28;20035;-83
2022/10/20 09:26:32;;;;;;;16.42;12.75;;;;;;;13.43;98.17;101132.44;5028814;28;20109;-83
2022/10/20 09:29:31;;;;;;;16.10;12.02;;;;;;;13.49;98.07;101131.09;5009868;28;20029;-83
2022/10/20 09:31:56;;;;;;;16.63;12.82;;;;;;;13.49;97.93;101125.81;5003840;28;20100;-84
2022/10/20 09:34:29;;;;;;;17.70;12.77;;;;;;;13.52;98.12;101122.09;5011471;28;20021;-87
2022/10/20 09:37:21;;;;;;;17.02;12.88;;;;;;;13.57;99.00;101123.38;5028900;28;20033;-84
2022/10/20 09:39:58;;;;;;;15.52;12.30;;;;;;;13.58;98.81;101134.81;4989987;28;20038;-84
2022/10/20 09:42:26;;;;;;;14.27;12.63;;;;;;;13.60;98.39;101144.28;5009728;28;20104;-84
2022/10/20 09:45:06;;;;;;;16.20;12.65;;;;;;;13.59;98.58;101147.88;5014576;28;20030;-84
2022/10/20 09:47:33;;;;;;;14.63;12.30;;;;;;;13.58;98.33;101148.84;5016124;28;20029;-84
2022/10/20 09:50:07;;;;;;;19.90;12.65;;;;;;;13.58;98.54;101140.09;5013966;28;20026;-87
2022/10/20 09:52:46;;;;;;;15.05;12.60;;;;;;;13.57;98.82;101130.47;5001902;28;20033;-86
2022/10/20 09:55:31;;;;;;;18.35;12.57;;;;;;;13.60;98.90;101117.84;5006724;28;20037;-84
2022/10/20 09:58:00;;;;;;;13.90;12.18;;;;;;;13.55;98.86;101117.38;5026475;28;20029;-84
2022/10/20 10:00:32;;;;;;;14.77;12.07;;;;;;;13.57;99.40;101122.53;5032602;28;20029;-84
2022/10/20 10:03:08;;;;;;;17.15;12.57;;;;;;;13.55;100.00;101125.31;5015284;28;20022;-84
2022/10/20 10:05:34;;;;;;;18.38;13.15;;;;;;;13.49;100.00;101115.25;5010078;28;20049;-85
2022/10/20 10:07:59;;;;;;;16.55;12.95;;;;;;;13.51;100.00;101118.59;5007331;28;20472;-84
2022/10/20 10:10:28;;;;;;;15.88;13.15;;;;;;;13.46;100.00;101123.44;5003819;28;20052;-83
2022/10/20 10:12:56;;;;;;;19.67;13.65;;;;;;;13.41;100.00;101117.69;5028377;28;20036;-85
2022/10/20 10:15:21;;;;;;;17.63;13.25;;;;;;;13.38;100.00;101117.94;5015192;28;20051;-84
2022/10/20 10:17:48;;;;;;;18.17;14.73;;;;;;;13.34;100.00;101121.78;5007940;28;20026;-84
2022/10/20 10:20:15;;;;;;;19.55;15.38;;;;;;;13.31;100.00;101116.75;4994080;28;20022;-85
2022/10/20 10:22:41;;;;;;;21.80;14.73;;;;;;;13.32;100.00;101107.88;4995398;28;20033;-85
2022/10/20 10:25:16;;;;;;;20.20;14.85;;;;;;;13.29;100.00;101103.66;5000040;28;20029;-85
2022/10/20 10:27:59;;;;;;;22.83;15.27;;;;;;;13.27;100.00;101099.47;5014059;28;20021;-85
2022/10/20 10:30:33;;;;;;;21.45;15.48;;;;;;;13.25;100.00;101096.13;5011628;28;20026;-85
2022/10/20 10:32:59;;;;;;;21.55;16.00;;;;;;;13.26;100.00;101089.88;5027573;28;20056;-86
2022/10/20 10:35:29;;;;;;;20.98;16.27;;;;;;;13.25;100.00;101083.75;5011300;28;20071;-87
2022/10/20 10:37:59;;;;;;;21.25;16.42;;;;;;;13.26;100.00;101074.00;5012798;28;20084;-87
2022/10/20 10:40:48;;;;;;;20.23;16.20;;;;;;;13.26;100.00;101077.50;5023897;28;20041;-87
2022/10/20 10:43:29;;;;;;;22.48;17.08;;;;;;;13.26;100.00;101088.06;5013761;28;20040;-87
2022/10/20 10:46:25;;;;;;;22.63;16.85;;;;;;;13.27;100.00;101086.25;5025242;28;20030;-87
2022/10/20 10:48:57;;;;;;;26.77;17.67;;;;;;;13.25;100.00;101088.19;5028918;28;20048;-87
2022/10/20 10:51:41;;;;;;;24.30;17.50;;;;;;;13.24;100.00;101095.28;5014145;28;20021;-87
2022/10/20 10:54:35;;;;;;;24.55;17.73;;;;;;;13.24;100.00;101097.09;5030704;28;20047;-87
2022/10/20 10:57:44;;;;;;;23.17;18.00;;;;;;;13.24;100.00;101087.34;5013176;28;20033;-88
2022/10/20 11:00:19;;;;;;;28.48;17.52;;;;;;;13.19;100.00;101086.84;4990200;28;20058;-87
2022/10/20 11:03:32;;;;;;;24.50;17.17;;;;;;;13.23;100.00;101092.75;5023460;28;20028;-87
2022/10/20 11:06:09;;;;;;;28.30;19.80;;;;;;;13.17;100.00;101076.41;4995901;28;20037;-88
2022/10/20 11:08:57;;;;;;;23.27;18.83;;;;;;;13.20;100.00;101061.28;5019846;28;20388;-87
2022/10/20 11:11:31;;;;;;;27.85;19.50;;;;;;;13.20;100.00;101063.91;5004906;28;20053;-87
2022/10/20 11:14:37;;;;;;;24.35;18.88;;;;;;;13.20;100.00;101062.13;5022704;28;20032;-88